Time;durP1;ratioP1;P1;durP2;ratioP2;P2;SDS_P1;SDS_P2;PMS_P1;PMS_P2;Temp;Humidity;BMP_temperature;BMP_pressure;BME280_temperature;BME280_humidity;BME280_pressure;Samples;Min_cycle;Max_cycle;Signal;HPM_P1;HPM_P2
2022/11/17 00:00:26;;;;;;;4.45;3.00;;;;;;;2.58;100.00;96731.25;1713364;83;20998;-82
2022/11/17 00:02:54;;;;;;;5.90;4.03;;;;;;;2.54;100.00;96731.74;1713098;83;21046;-77
2022/11/17 00:05:21;;;;;;;4.70;3.17;;;;;;;2.59;100.00;96728.84;1713248;83;21458;-81
2022/11/17 00:07:48;;;;;;;4.67;3.47;;;;;;;2.59;100.00;96724.83;1713182;83;21018;-81
2022/11/17 00:10:16;;;;;;;5.12;3.58;;;;;;;2.59;100.00;96723.48;1713309;83;21013;-77
2022/11/17 00:15:28;;;;;;;7.62;4.72;;;;;;;2.65;100.00;96729.12;1713304;82;21698;-82
2022/11/17 00:23:45;;;;;;;5.75;3.70;;;;;;;2.53;100.00;96733.34;1715117;82;21055;-81
2022/11/17 00:25:58;;;;;;;3.80;2.40;;;;;;;2.55;100.00;96729.34;1679712;85;21031;-77
2022/11/17 00:28:25;;;;;;;6.25;3.30;;;;;;;2.52;100.00;96732.55;1718121;83;21055;-77
2022/11/17 00:36:24;;;;;;;7.00;3.70;;;;;;;2.51;100.00;96750.19;1659542;85;21027;-77
2022/11/17 00:38:51;;;;;;;4.25;2.92;;;;;;;2.54;100.00;96741.64;1659485;86;21066;-82
2022/11/17 00:41:18;;;;;;;4.05;2.55;;;;;;;2.58;100.00;96746.76;1659501;85;21057;-77
2022/11/17 00:43:45;;;;;;;4.50;2.85;;;;;;;2.52;100.00;96746.45;1659148;85;21045;-82
2022/11/17 00:46:12;;;;;;;3.62;2.25;;;;;;;2.55;100.00;96744.05;1659597;85;21026;-77
2022/11/17 00:48:39;;;;;;;4.78;2.58;;;;;;;2.53;100.00;96736.02;1659218;85;21089;-77
2022/11/17 00:51:06;;;;;;;7.78;3.58;;;;;;;2.58;100.00;96741.94;1659338;85;21034;-77
2022/11/17 00:53:33;;;;;;;6.22;2.95;;;;;;;2.59;100.00;96746.22;1659405;85;21077;-82
2022/11/17 00:56:00;;;;;;;4.87;2.83;;;;;;;2.52;100.00;96743.24;1659547;85;21089;-77
2022/11/17 00:58:26;;;;;;;2.52;2.00;;;;;;;2.52;100.00;96733.88;1659300;85;21026;-77
2022/11/17 01:00:53;;;;;;;2.55;1.62;;;;;;;2.58;100.00;96728.03;1659559;86;21505;-81
2022/11/17 01:03:20;;;;;;;6.42;3.10;;;;;;;2.40;100.00;96723.13;1659395;86;21153;-81
2022/11/17 01:05:47;;;;;;;4.53;2.20;;;;;;;2.50;100.00;96716.50;1659568;85;21030;-77
2022/11/17 01:08:14;;;;;;;4.40;2.20;;;;;;;2.50;100.00;96713.28;1667477;83;21030;-82
2022/11/17 01:10:41;;;;;;;4.37;3.00;;;;;;;2.50;100.00;96717.30;1711786;83;21066;-82
2022/11/17 01:13:08;;;;;;;5.35;2.52;;;;;;;2.46;100.00;96722.07;1711532;82;21097;-81
2022/11/17 01:15:34;;;;;;;2.83;2.10;;;;;;;2.42;100.00;96726.34;1711771;83;21028;-81
2022/11/17 01:18:02;;;;;;;2.05;1.50;;;;;;;2.47;100.00;96737.05;1711660;82;20996;-77
2022/11/17 01:20:29;;;;;;;3.42;1.50;;;;;;;2.44;100.00;96739.72;1711580;83;21017;-81
2022/11/17 01:22:55;;;;;;;4.05;2.15;;;;;;;2.45;100.00;96733.84;1711383;82;21018;-82
2022/11/17 01:25:22;;;;;;;5.10;3.42;;;;;;;2.49;100.00;96729.06;1711667;83;21022;-77
2022/11/17 01:27:49;;;;;;;3.95;2.72;;;;;;;2.53;100.00;96731.48;1711587;82;21074;-81
2022/11/17 01:30:17;;;;;;;3.72;2.15;;;;;;;2.59;100.00;96719.48;1711724;83;21161;-77
2022/11/17 01:32:44;;;;;;;5.60;3.02;;;;;;;2.56;100.00;96722.12;1713081;83;21443;-77
2022/11/17 01:35:10;;;;;;;7.78;3.58;;;;;;;2.58;100.00;96723.22;1713297;83;21002;-77
2022/11/17 01:37:37;;;;;;;6.67;2.77;;;;;;;2.50;100.00;96721.31;1713245;83;20987;-77
2022/11/17 01:40:06;;;;;;;8.05;4.37;;;;;;;2.49;100.00;96724.25;1713444;83;21075;-77
2022/11/17 01:42:33;;;;;;;5.70;3.87;;;;;;;2.51;100.00;96734.14;1713084;83;22039;-82
2022/11/17 01:45:08;;;;;;;3.52;2.20;;;;;;;2.55;100.00;96725.33;1713328;83;20977;-77
2022/11/17 01:47:48;;;;;;;2.75;1.60;;;;;;;2.53;100.00;96739.50;1703590;83;21101;-82
2022/11/17 01:50:37;;;;;;;3.33;1.90;;;;;;;2.49;100.00;96743.77;1713274;82;21027;-82
2022/11/17 01:53:12;;;;;;;2.33;1.65;;;;;;;2.45;100.00;96745.33;1713478;82;27251;-82
2022/11/17 01:55:55;;;;;;;1.55;1.20;;;;;;;2.41;100.00;96748.27;1713423;83;21035;-77
2022/11/17 01:58:30;;;;;;;1.67;1.10;;;;;;;2.42;100.00;96750.41;1712807;82;20998;-82
2022/11/17 02:00:57;;;;;;;5.25;2.08;;;;;;;2.28;100.00;96742.02;1713362;82;21579;-81
2022/11/17 02:03:25;;;;;;;2.08;1.20;;;;;;;2.25;100.00;96747.36;1713100;83;21062;-81
2022/11/17 02:06:07;;;;;;;2.37;1.65;;;;;;;2.24;100.00;96745.75;1713570;83;21042;-77
2022/11/17 02:08:36;;;;;;;2.90;2.00;;;;;;;2.24;100.00;96747.62;1703860;83;21007;-78
2022/11/17 02:11:07;;;;;;;3.90;2.77;;;;;;;2.29;100.00;96734.80;1713228;83;21497;-77
2022/11/17 02:13:34;;;;;;;5.58;2.35;;;;;;;2.34;100.00;96742.33;1712951;83;21039;-82
2022/11/17 02:16:01;;;;;;;2.22;1.40;;;;;;;2.34;100.00;96731.64;1713403;83;21424;-77
2022/11/17 02:18:28;;;;;;;2.60;1.87;;;;;;;2.33;100.00;96729.23;1713237;83;21062;-82
2022/11/17 02:21:26;;;;;;;2.55;1.65;;;;;;;2.26;100.00;96711.54;1713409;83;20982;-82
2022/11/17 02:24:19;;;;;;;1.80;1.20;;;;;;;2.27;100.00;96711.01;1713541;82;21011;-81
2022/11/17 02:27:16;;;;;;;1.90;1.52;;;;;;;2.28;100.00;96707.80;1711748;82;21002;-77
2022/11/17 02:29:51;;;;;;;2.77;1.52;;;;;;;2.25;100.00;96709.13;1712987;83;20990;-82
2022/11/17 02:32:28;;;;;;;3.02;1.55;;;;;;;2.22;100.00;96692.25;1732139;81;21008;-77
2022/11/17 02:35:24;;;;;;;3.08;1.75;;;;;;;2.22;100.00;96702.95;1738045;82;21029;-78
2022/11/17 02:38:02;;;;;;;2.80;1.77;;;;;;;2.19;100.00;96702.13;1738146;81;21088;-77
2022/11/17 02:40:35;;;;;;;3.22;1.67;;;;;;;2.23;100.00;96708.59;1738099;82;21013;-82
2022/11/17 02:46:15;;;;;;;2.17;1.30;;;;;;;2.17;100.00;96714.42;1738353;82;21032;-77
2022/11/17 02:48:56;;;;;;;3.40;2.10;;;;;;;2.22;100.00;96710.46;1737983;81;21078;-81
2022/11/17 02:51:23;;;;;;;5.00;3.10;;;;;;;2.28;100.00;96714.48;1737879;82;21007;-81
2022/11/17 02:53:53;;;;;;;4.22;2.98;;;;;;;2.34;100.00;96718.80;1738060;81;21319;-77
2022/11/17 02:56:20;;;;;;;4.25;2.65;;;;;;;2.36;100.00;96716.14;1738232;82;21083;-77
2022/11/17 02:58:49;;;;;;;5.25;2.47;;;;;;;2.37;100.00;96712.40;1738026;81;21008;-82
2022/11/17 03:01:25;;;;;;;6.85;4.08;;;;;;;2.36;100.00;96711.33;1738137;82;22037;-77
2022/11/17 03:04:03;;;;;;;5.75;3.20;;;;;;;2.28;100.00;96710.47;1724265;81;21040;-82
2022/11/17 03:07:01;;;;;;;5.33;3.50;;;;;;;2.26;100.00;96716.08;1737256;82;21020;-79
2022/11/17 03:09:49;;;;;;;6.28;3.98;;;;;;;2.22;100.00;96712.30;1738159;80;20988;-82
2022/11/17 03:12:33;;;;;;;4.60;3.00;;;;;;;2.23;100.00;96712.06;1738217;81;21040;-77
2022/11/17 03:15:08;;;;;;;4.25;2.92;;;;;;;2.13;100.00;96709.30;1738128;82;21067;-77
2022/11/17 03:17:50;;;;;;;4.35;2.02;;;;;;;2.15;100.00;96712.55;1738219;81;21063;-77
2022/11/17 03:21:11;;;;;;;2.40;1.65;;;;;;;2.16;100.00;96716.83;1738207;82;21052;-77
2022/11/17 03:23:50;;;;;;;2.40;1.35;;;;;;;2.20;100.00;96718.44;1700965;83;21488;-82
2022/11/17 03:26:28;;;;;;;2.40;1.35;;;;;;;2.21;100.00;96718.17;1686792;84;21099;-77
2022/11/17 03:28:55;;;;;;;1.70;1.30;;;;;;;2.19;100.00;96719.51;1701611;83;21038;-77
2022/11/17 03:31:21;;;;;;;2.52;1.60;;;;;;;2.18;100.00;96719.23;1712241;83;20999;-81
2022/11/17 03:33:48;;;;;;;2.50;1.50;;;;;;;2.17;100.00;96718.97;1713122;83;21545;-81
2022/11/17 03:36:19;;;;;;;4.00;1.67;;;;;;;2.20;100.00;96719.78;1713340;83;20971;-77
2022/11/17 03:38:57;;;;;;;6.83;3.50;;;;;;;2.19;100.00;96726.19;1712953;83;21015;-82
2022/11/17 03:41:25;;;;;;;2.30;1.75;;;;;;;2.16;100.00;96729.39;1713163;82;21178;-82
2022/11/17 03:43:52;;;;;;;2.85;1.50;;;;;;;2.13;100.00;96724.00;1713110;83;20972;-77
2022/11/17 03:46:19;;;;;;;1.80;1.10;;;;;;;2.10;100.00;96726.39;1713362;83;21541;-77
2022/11/17 03:48:51;;;;;;;3.37;1.50;;;;;;;2.04;100.00;96722.06;1712983;83;20991;-77
2022/11/17 03:51:26;;;;;;;1.95;1.30;;;;;;;1.98;100.00;96724.72;1713429;83;21599;-77
2022/11/17 03:53:53;;;;;;;1.57;1.32;;;;;;;1.91;100.00;96720.66;1712968;82;20994;-77
2022/11/17 03:56:43;;;;;;;2.17;1.42;;;;;;;1.94;100.00;96720.13;1713281;82;21003;-77
2022/11/17 03:59:15;;;;;;;3.05;1.22;;;;;;;1.98;100.00;96727.92;1713078;83;21498;-77
2022/11/17 04:01:42;;;;;;;3.35;1.87;;;;;;;1.95;100.00;96728.41;1713402;82;21431;-82
2022/11/17 04:04:18;;;;;;;2.92;1.75;;;;;;;1.96;100.00;96739.37;1713094;83;21990;-82
2022/11/17 04:06:45;;;;;;;2.47;1.75;;;;;;;1.97;100.00;96742.34;1713413;83;21066;-77
2022/11/17 04:09:11;;;;;;;2.92;1.45;;;;;;;1.94;100.00;96741.50;1713032;83;21023;-77
2022/11/17 04:17:09;;;;;;;2.80;1.77;;;;;;;1.81;100.00;96726.73;1713318;82;20994;-82
2022/11/17 04:19:36;;;;;;;3.92;2.70;;;;;;;1.79;100.00;96721.34;1713268;83;21015;-77
2022/11/17 04:22:03;;;;;;;10.45;6.10;;;;;;;1.73;100.00;96736.54;1713359;83;21062;-77
2022/11/17 04:24:33;;;;;;;9.60;5.72;;;;;;;1.66;100.00;96726.06;1717583;82;21052;-77
2022/11/17 04:29:28;;;;;;;3.10;2.52;;;;;;;1.70;100.00;96733.02;1670360;83;21720;-77
2022/11/17 04:31:55;;;;;;;5.22;3.55;;;;;;;1.69;100.00;96728.74;1715357;83;21006;-78
2022/11/17 04:34:22;;;;;;;7.10;3.90;;;;;;;1.69;100.00;96732.75;1712954;83;20998;-82
2022/11/17 04:36:49;;;;;;;5.50;2.60;;;;;;;1.66;100.00;96732.73;1713392;83;21516;-77
2022/11/17 04:39:16;;;;;;;2.85;2.08;;;;;;;1.66;100.00;96737.27;1712949;82;21007;-77
2022/11/17 04:41:52;;;;;;;5.90;4.15;;;;;;;1.58;100.00;96731.86;1713309;83;21010;-80
2022/11/17 04:44:23;;;;;;;7.50;4.70;;;;;;;1.48;100.00;96727.77;1713057;83;21005;-77
2022/11/17 04:46:51;;;;;;;10.25;5.55;;;;;;;1.50;100.00;96723.50;1713226;83;21031;-77
2022/11/17 04:49:18;;;;;;;7.08;4.80;;;;;;;1.52;100.00;96728.05;1712978;83;21086;-77
2022/11/17 04:51:45;;;;;;;6.75;4.42;;;;;;;1.55;100.00;96732.91;1713403;83;21439;-77
2022/11/17 04:54:14;;;;;;;6.40;4.03;;;;;;;1.56;100.00;96736.66;1712977;82;21465;-82
2022/11/17 04:56:41;;;;;;;6.47;4.30;;;;;;;1.57;100.00;96734.79;1713515;83;24242;-77
2022/11/17 04:59:08;;;;;;;6.85;4.40;;;;;;;1.57;100.00;96735.59;1712974;82;21350;-78
2022/11/17 05:01:35;;;;;;;6.83;4.25;;;;;;;1.61;100.00;96738.55;1713192;83;21431;-81
2022/11/17 05:04:07;;;;;;;5.92;3.20;;;;;;;1.64;100.00;96736.20;1668176;83;21056;-82
2022/11/17 05:06:38;;;;;;;4.10;2.50;;;;;;;1.65;100.00;96734.33;1662763;86;21027;-77
2022/11/17 05:09:12;;;;;;;4.05;2.92;;;;;;;1.66;100.00;96736.74;1662233;86;21500;-77
2022/11/17 05:14:25;;;;;;;4.42;2.67;;;;;;;1.63;100.00;96749.28;1662532;86;21663;-82
2022/11/17 05:17:04;;;;;;;3.20;2.52;;;;;;;1.62;100.00;96742.33;1662678;86;21044;-78
2022/11/17 05:19:34;;;;;;;;;;;;;;;1.61;100.00;96744.70;1665168;85;21084;-77
2022/11/17 05:22:01;;;;;;;4.20;2.47;;;;;;;1.57;100.00;96742.27;1632784;87;20946;-82
2022/11/17 05:24:28;;;;;;;4.22;2.92;;;;;;;1.60;100.00;96740.41;1702339;83;21002;-77
2022/11/17 05:26:54;;;;;;;3.72;2.65;;;;;;;1.62;100.00;96739.66;1711866;83;22082;-77
2022/11/17 05:29:22;;;;;;;5.00;2.92;;;;;;;1.65;100.00;96741.01;1711538;82;21077;-77
2022/11/17 05:31:48;;;;;;;4.67;2.72;;;;;;;1.71;100.00;96742.67;1712512;83;21097;-82
2022/11/17 05:34:21;;;;;;;5.95;2.98;;;;;;;1.67;100.00;96738.35;1713063;83;20963;-82
2022/11/17 05:36:44;;;;;;;;;;;;;;;1.70;100.00;96737.83;1704664;83;21062;-82
2022/11/17 05:39:12;;;;;;;19.73;11.85;;;;;;;1.75;100.00;96738.95;1713044;83;20148;-81
2022/11/17 05:41:40;;;;;;;14.77;8.80;;;;;;;1.77;100.00;96739.50;1713279;82;21290;-77
2022/11/17 05:44:07;;;;;;;15.88;8.18;;;;;;;1.77;100.00;96744.30;1713118;83;21340;-77
2022/11/17 05:46:34;;;;;;;22.93;13.08;;;;;;;1.79;100.00;96749.39;1713303;83;21014;-82
2022/11/17 05:49:01;;;;;;;14.38;8.73;;;;;;;1.82;100.00;96744.89;1713019;83;21054;-77
2022/11/17 05:51:30;;;;;;;14.35;8.08;;;;;;;1.83;100.00;96749.17;1713352;83;21011;-81
2022/11/17 05:53:57;;;;;;;10.63;5.80;;;;;;;1.86;100.00;96748.12;1713330;83;21003;-82
2022/11/17 05:56:32;;;;;;;11.00;5.70;;;;;;;1.87;100.00;96748.92;1712838;83;21053;-77
2022/11/17 05:59:17;;;;;;;13.35;6.10;;;;;;;1.82;100.00;96747.03;1711891;83;21041;-77
2022/11/17 06:02:00;;;;;;;11.00;4.83;;;;;;;1.83;100.00;96741.96;1681122;83;21082;-82
2022/11/17 06:04:27;;;;;;;15.60;7.65;;;;;;;1.88;100.00;96739.34;1695768;83;21044;-77
2022/11/17 06:06:57;;;;;;;15.23;7.45;;;;;;;1.86;100.00;96742.78;1713451;83;20998;-82
2022/11/17 06:09:22;;;;;;;17.17;6.80;;;;;;;1.83;100.00;96741.16;1713150;82;20993;-82
2022/11/17 06:11:49;;;;;;;11.18;6.58;;;;;;;1.87;100.00;96749.73;1713460;83;20981;-82
2022/11/17 06:14:16;;;;;;;7.03;4.10;;;;;;;1.91;100.00;96764.73;1703589;82;20981;-82
2022/11/17 06:16:43;;;;;;;11.57;5.60;;;;;;;1.87;100.00;96757.73;1713563;82;20989;-77
2022/11/17 06:19:18;;;;;;;14.33;8.25;;;;;;;1.90;100.00;96765.27;1707498;83;21012;-77
2022/11/17 06:21:45;;;;;;;13.48;7.80;;;;;;;1.91;100.00;96756.72;1707416;83;21061;-77
2022/11/17 06:24:12;;;;;;;41.20;16.55;;;;;;;1.94;100.00;96762.88;1712768;82;21256;-81
2022/11/17 06:26:40;;;;;;;43.55;20.30;;;;;;;2.00;100.00;96767.21;1689606;83;21019;-82
2022/11/17 06:29:07;;;;;;;15.30;7.47;;;;;;;2.02;100.00;96773.09;1691764;83;21470;-77
2022/11/17 06:31:34;;;;;;;10.30;5.47;;;;;;;2.01;100.00;96767.48;1724534;82;21072;-78
2022/11/17 06:34:01;;;;;;;10.63;5.58;;;;;;;2.01;100.00;96770.16;1726438;81;21008;-77
2022/11/17 06:36:28;;;;;;;9.25;4.70;;;;;;;2.01;100.00;96770.69;1704489;83;21752;-77
2022/11/17 06:38:55;;;;;;;10.68;5.30;;;;;;;2.04;100.00;96778.19;1710732;82;21525;-77
2022/11/17 06:41:22;;;;;;;6.83;4.17;;;;;;;2.01;100.00;96776.84;1692257;83;21067;-77
2022/11/17 06:43:49;;;;;;;6.10;3.33;;;;;;;2.06;100.00;96784.91;1702979;82;21009;-82
2022/11/17 06:46:17;;;;;;;3.45;1.62;;;;;;;2.11;100.00;96785.46;1702929;83;21040;-82
2022/11/17 06:48:44;;;;;;;5.03;2.07;;;;;;;2.17;100.00;96793.80;1708035;82;21095;-77
2022/11/17 06:51:11;;;;;;;3.55;1.85;;;;;;;2.18;100.00;96792.73;1708737;83;21027;-81
2022/11/17 06:53:38;;;;;;;3.17;1.90;;;;;;;2.17;100.00;96793.27;1702827;82;21492;-77
2022/11/17 06:56:07;;;;;;;4.25;1.90;;;;;;;2.07;100.00;96791.86;1698271;83;21008;-81
2022/11/17 06:58:35;;;;;;;4.75;2.15;;;;;;;2.02;100.00;96794.48;1692741;83;21456;-77
2022/11/17 07:01:11;;;;;;;5.30;4.50;;;;;;;2.07;100.00;96787.84;1700040;83;21764;-81
2022/11/17 07:03:39;;;;;;;8.43;4.92;;;;;;;2.05;100.00;96789.98;1708846;83;20982;-82
2022/11/17 07:06:08;;;;;;;3.83;2.10;;;;;;;2.12;100.00;96788.41;1707074;83;21033;-81
2022/11/17 07:08:35;;;;;;;5.40;2.70;;;;;;;1.89;100.00;96793.05;1694643;83;21065;-77
2022/11/17 07:11:03;;;;;;;4.20;2.22;;;;;;;1.97;100.00;96787.77;1703138;83;21472;-81
2022/11/17 07:13:31;;;;;;;2.77;1.85;;;;;;;1.97;100.00;96792.58;1694479;83;21032;-81
2022/11/17 07:16:16;;;;;;;3.45;1.80;;;;;;;1.94;100.00;96794.94;1702856;82;21517;-82
2022/11/17 07:18:42;;;;;;;5.03;2.00;;;;;;;1.92;100.00;96799.73;1700492;82;21063;-77
2022/11/17 07:21:11;;;;;;;3.98;2.50;;;;;;;1.90;100.00;96801.33;1702950;82;21099;-82
2022/11/17 07:23:39;;;;;;;4.03;2.40;;;;;;;1.92;100.00;96802.41;1646266;86;21077;-77
2022/11/17 07:26:06;;;;;;;7.47;2.60;;;;;;;1.91;100.00;96799.47;1699218;82;21033;-82
2022/11/17 07:28:33;;;;;;;7.12;3.95;;;;;;;1.78;100.00;96808.69;1699148;82;21037;-77
2022/11/17 07:31:03;;;;;;;5.42;3.02;;;;;;;1.70;100.00;96798.45;1705926;82;21062;-81
2022/11/17 07:33:31;;;;;;;5.37;3.45;;;;;;;1.72;100.00;96809.72;1706903;82;21091;-81
2022/11/17 07:36:03;;;;;;;12.10;5.03;;;;;;;1.69;100.00;96809.66;1702716;82;21008;-81
2022/11/17 07:38:33;;;;;;;8.30;3.55;;;;;;;1.76;100.00;96806.80;1709624;82;21063;-82
2022/11/17 07:41:00;;;;;;;13.28;5.35;;;;;;;1.60;100.00;96808.51;1705485;82;21013;-82
2022/11/17 07:43:27;;;;;;;48.87;22.40;;;;;;;1.57;100.00;96798.34;1702921;82;20992;-82
2022/11/17 07:45:54;;;;;;;11.08;6.75;;;;;;;1.59;100.00;96800.75;1695497;82;21198;-77
2022/11/17 07:48:21;;;;;;;26.87;13.53;;;;;;;1.56;100.00;96799.94;1705365;82;21033;-77
2022/11/17 07:50:48;;;;;;;38.02;22.22;;;;;;;1.68;100.00;96800.58;1709499;83;21041;-82
2022/11/17 07:53:14;;;;;;;35.78;16.73;;;;;;;1.71;100.00;96801.42;1708287;81;21087;-82
2022/11/17 07:55:41;;;;;;;66.45;30.95;;;;;;;1.69;100.00;96801.66;1704625;82;21394;-77
2022/11/17 07:58:08;;;;;;;27.82;13.40;;;;;;;1.73;100.00;96800.64;1701360;82;21005;-81
2022/11/17 08:00:35;;;;;;;19.40;9.85;;;;;;;1.65;100.00;96795.22;1701640;82;21023;-82
2022/11/17 08:03:03;;;;;;;69.90;28.12;;;;;;;1.74;100.00;96804.11;1699702;82;21060;-81
2022/11/17 08:05:31;;;;;;;27.22;13.10;;;;;;;1.79;100.00;96806.28;1702151;82;20978;-81
2022/11/17 08:07:58;;;;;;;15.30;8.47;;;;;;;1.80;100.00;96799.91;1701285;82;20977;-82
2022/11/17 08:10:31;;;;;;;18.23;10.15;;;;;;;1.78;100.00;96798.53;1704432;82;20992;-82
2022/11/17 08:12:59;;;;;;;20.77;14.55;;;;;;;1.83;100.00;96798.59;1702920;82;21370;-81
2022/11/17 08:15:28;;;;;;;31.68;17.17;;;;;;;1.91;100.00;96802.94;1701528;82;21893;-77
2022/11/17 08:17:56;;;;;;;28.25;15.72;;;;;;;1.87;100.00;96800.48;1701522;82;21027;-77
2022/11/17 08:20:23;;;;;;;29.30;15.80;;;;;;;2.01;100.00;96795.54;1702999;81;20982;-82
2022/11/17 08:22:50;;;;;;;12.03;6.55;;;;;;;2.03;100.00;96797.95;1710864;80;22309;-77
2022/11/17 08:25:22;;;;;;;19.67;10.45;;;;;;;2.08;100.00;96796.67;1706933;82;21711;-81
2022/11/17 08:27:50;;;;;;;23.98;11.65;;;;;;;2.11;100.00;96804.17;1694263;82;21105;-82
2022/11/17 08:30:19;;;;;;;8.95;4.83;;;;;;;2.06;100.00;96806.28;1703549;82;21110;-77
2022/11/17 08:32:48;;;;;;;9.08;5.40;;;;;;;2.15;100.00;96807.42;1707495;82;21520;-77
2022/11/17 08:35:16;;;;;;;20.17;8.93;;;;;;;2.07;100.00;96805.75;1698445;83;21056;-77
2022/11/17 08:37:42;;;;;;;11.03;6.62;;;;;;;2.23;100.00;96808.83;1698618;82;21109;-82
2022/11/17 08:40:11;;;;;;;11.88;6.03;;;;;;;2.22;100.00;96817.88;1713825;82;21158;-81
2022/11/17 08:42:38;;;;;;;20.97;12.73;;;;;;;2.24;100.00;96819.79;1718308;82;21319;-82
2022/11/17 08:45:06;;;;;;;7.42;5.10;;;;;;;2.30;100.00;96825.96;1711033;82;21059;-82
2022/11/17 08:47:33;;;;;;;5.42;3.85;;;;;;;2.36;100.00;96824.41;1708955;82;21094;-77
2022/11/17 08:50:00;;;;;;;4.70;2.65;;;;;;;2.36;100.00;96835.11;1703940;82;21051;-81
2022/11/17 08:52:27;;;;;;;8.85;3.70;;;;;;;2.36;100.00;96832.44;1708920;82;21987;-82
2022/11/17 08:54:54;;;;;;;11.68;6.10;;;;;;;2.37;100.00;96832.70;1705616;82;21001;-77
2022/11/17 08:57:21;;;;;;;23.18;14.00;;;;;;;2.35;100.00;96828.16;1700866;82;21088;-77
2022/11/17 08:59:48;;;;;;;12.80;7.42;;;;;;;2.36;100.00;96835.11;1696494;83;21057;-82
2022/11/17 09:02:15;;;;;;;17.77;12.25;;;;;;;2.27;100.00;96832.63;1698806;83;21381;-77
2022/11/17 09:04:44;;;;;;;11.43;6.37;;;;;;;2.32;100.00;96835.89;1708821;82;21043;-77
2022/11/17 09:07:11;;;;;;;15.55;8.50;;;;;;;2.35;100.00;96836.17;1691656;82;27010;-81
2022/11/17 09:09:38;;;;;;;10.50;4.55;;;;;;;2.22;100.00;96828.57;1699855;82;21028;-77
2022/11/17 09:12:05;;;;;;;12.47;5.37;;;;;;;2.31;100.00;96823.06;1705676;82;21000;-82
2022/11/17 09:14:32;;;;;;;13.75;6.55;;;;;;;2.22;100.00;96825.90;1699224;82;21508;-77
2022/11/17 09:16:58;;;;;;;8.28;5.55;;;;;;;2.45;100.00;96827.42;1702463;83;21104;-77
2022/11/17 09:19:26;;;;;;;16.48;9.48;;;;;;;2.55;100.00;96820.27;1697566;83;21091;-77
2022/11/17 09:21:53;;;;;;;13.60;7.70;;;;;;;2.53;100.00;96825.61;1707938;82;21103;-77
2022/11/17 09:24:19;;;;;;;12.07;7.03;;;;;;;2.42;100.00;96826.61;1697010;83;21059;-77
2022/11/17 09:26:46;;;;;;;10.18;5.87;;;;;;;2.39;100.00;96827.09;1698988;83;21023;-82
2022/11/17 09:29:13;;;;;;;12.00;6.25;;;;;;;2.37;100.00;96822.55;1703286;82;21541;-81
2022/11/17 09:31:40;;;;;;;41.85;16.85;;;;;;;2.45;100.00;96810.84;1707536;82;21147;-77
2022/11/17 09:34:07;;;;;;;12.03;7.35;;;;;;;2.43;100.00;96808.16;1702572;82;21083;-82
2022/11/17 09:36:34;;;;;;;5.83;3.87;;;;;;;2.41;100.00;96816.98;1701761;82;21013;-77
2022/11/17 09:39:01;;;;;;;5.28;3.25;;;;;;;2.29;100.00;96833.17;1700717;82;21497;-81
2022/11/17 09:41:36;;;;;;;10.93;5.15;;;;;;;2.23;100.00;96835.02;1710417;83;21915;-77
2022/11/17 09:44:23;;;;;;;26.85;15.45;;;;;;;2.21;100.00;96823.76;1705094;82;21096;-77
2022/11/17 09:47:29;;;;;;;15.23;8.73;;;;;;;2.33;100.00;96822.80;1706404;82;21025;-82
2022/11/17 09:50:23;;;;;;;14.75;8.50;;;;;;;2.51;100.00;96823.20;1702337;83;21021;-82
2022/11/17 09:53:18;;;;;;;13.40;7.37;;;;;;;2.60;100.00;96806.14;1691636;83;21511;-77
2022/11/17 09:55:47;;;;;;;11.05;6.35;;;;;;;2.49;100.00;96815.97;1700134;82;21040;-81
2022/11/17 09:58:42;;;;;;;42.23;18.27;;;;;;;2.53;100.00;96819.73;1697554;82;21441;-82
2022/11/17 10:01:15;;;;;;;16.62;8.98;;;;;;;2.53;100.00;96819.73;1702002;83;21060;-81
2022/11/17 10:03:46;;;;;;;12.40;6.35;;;;;;;2.59;100.00;96817.91;1697680;82;21128;-82
2022/11/17 10:06:19;;;;;;;6.62;4.55;;;;;;;2.55;100.00;96822.14;1711252;82;21477;-82
2022/11/17 10:09:00;;;;;;;7.95;5.80;;;;;;;2.43;100.00;96824.20;1695218;82;21036;-77
2022/11/17 10:11:37;;;;;;;9.08;5.90;;;;;;;2.54;100.00;96826.69;1697310;82;21040;-82
2022/11/17 10:14:14;;;;;;;11.45;7.87;;;;;;;2.45;100.00;96829.56;1695508;82;21060;-77
2022/11/17 10:16:56;;;;;;;9.80;5.75;;;;;;;2.65;100.00;96824.91;1704073;82;21285;-77
2022/11/17 10:19:31;;;;;;;7.97;4.75;;;;;;;2.65;100.00;96828.92;1692255;82;21091;-77
2022/11/17 10:22:07;;;;;;;11.15;5.95;;;;;;;2.67;100.00;96828.12;1687184;82;21184;-82
2022/11/17 10:24:45;;;;;;;14.30;6.05;;;;;;;2.59;100.00;96834.48;1704099;82;22003;-77
2022/11/17 10:27:28;;;;;;;10.68;5.58;;;;;;;2.50;100.00;96836.83;1703433;82;21025;-81
2022/11/17 10:30:20;;;;;;;8.03;4.75;;;;;;;2.60;100.00;96832.08;1692339;82;21055;-82
2022/11/17 10:32:56;;;;;;;6.03;3.52;;;;;;;2.60;100.00;96829.41;1702616;82;21021;-77
2022/11/17 10:35:29;;;;;;;10.82;5.50;;;;;;;2.60;100.00;96836.89;1697762;82;21080;-77
2022/11/17 10:38:00;;;;;;;9.48;4.53;;;;;;;2.55;100.00;96832.84;1708277;82;21123;-77
2022/11/17 10:40:34;;;;;;;8.55;6.15;;;;;;;2.49;100.00;96825.33;1712831;82;21052;-82
2022/11/17 10:43:16;;;;;;;8.33;5.40;;;;;;;2.53;100.00;96836.30;1702309;82;21037;-77
2022/11/17 10:45:54;;;;;;;6.55;4.03;;;;;;;2.62;100.00;96840.11;1704671;82;20978;-82
2022/11/17 10:48:32;;;;;;;12.07;7.65;;;;;;;2.47;100.00;96848.02;1706694;83;22566;-77
2022/11/17 10:51:10;;;;;;;6.85;4.08;;;;;;;2.50;100.00;96848.33;1662931;83;21096;-82
2022/11/17 10:53:40;;;;;;;5.33;3.20;;;;;;;2.36;100.00;96848.48;1682374;82;21036;-77
2022/11/17 10:56:17;;;;;;;4.47;3.02;;;;;;;2.38;100.00;96845.55;1711427;83;21489;-77
2022/11/17 10:59:17;;;;;;;7.47;3.95;;;;;;;2.38;100.00;96847.69;1710870;82;21404;-77
2022/11/17 11:01:49;;;;;;;7.10;4.53;;;;;;;2.35;100.00;96847.41;1695708;82;21127;-77
2022/11/17 11:04:34;;;;;;;8.80;4.80;;;;;;;2.35;100.00;96846.06;1711288;82;21060;-82
2022/11/17 11:07:19;;;;;;;6.53;3.72;;;;;;;2.36;100.00;96851.69;1712143;82;22968;-82
2022/11/17 11:10:19;;;;;;;6.75;4.50;;;;;;;2.36;100.00;96853.02;1693040;82;21549;-82
2022/11/17 11:13:06;;;;;;;7.70;5.00;;;;;;;2.42;100.00;96842.65;1708049;82;21012;-77
2022/11/17 11:15:35;;;;;;;5.03;4.20;;;;;;;2.37;100.00;96836.72;1693568;82;21137;-77
2022/11/17 11:18:16;;;;;;;7.45;4.80;;;;;;;2.29;100.00;96832.38;1707716;82;21407;-81
2022/11/17 11:21:15;;;;;;;6.37;3.15;;;;;;;2.24;100.00;96828.61;1708054;83;21170;-77
2022/11/17 11:23:53;;;;;;;7.65;4.85;;;;;;;2.43;100.00;96822.87;1705262;82;22173;-82
2022/11/17 11:26:38;;;;;;;8.70;5.77;;;;;;;2.42;100.00;96827.94;1703405;82;21056;-82
2022/11/17 11:29:25;;;;;;;7.47;4.58;;;;;;;2.47;100.00;96832.78;1706857;82;21747;-80
2022/11/17 11:32:10;;;;;;;5.65;3.92;;;;;;;2.46;100.00;96823.15;1710138;82;21505;-82
2022/11/17 11:35:10;;;;;;;5.55;4.53;;;;;;;2.48;100.00;96821.05;1715607;82;21563;-81
2022/11/17 11:37:56;;;;;;;5.70;4.20;;;;;;;2.41;100.00;96820.45;1659174;83;21101;-82
2022/11/17 11:40:30;;;;;;;5.85;4.35;;;;;;;2.25;100.00;96818.19;1704550;83;21029;-81
2022/11/17 11:43:25;;;;;;;10.80;5.83;;;;;;;2.42;100.00;96820.73;1720519;81;21042;-77
2022/11/17 11:46:15;;;;;;;8.93;4.95;;;;;;;2.44;100.00;96825.28;1673538;82;21428;-77
2022/11/17 11:48:42;;;;;;;8.15;4.70;;;;;;;2.38;100.00;96825.48;1693991;82;21014;-77
2022/11/17 11:51:14;;;;;;;9.63;4.70;;;;;;;2.36;100.00;96830.30;1711233;82;21198;-81
2022/11/17 11:54:12;;;;;;;7.78;4.90;;;;;;;2.28;100.00;96828.09;1701026;82;21348;-80
2022/11/17 11:56:43;;;;;;;8.58;4.87;;;;;;;2.48;100.00;96827.73;1700195;83;21172;-82
2022/11/17 11:59:47;;;;;;;10.35;5.83;;;;;;;2.21;100.00;96837.13;1707762;82;21037;-81
2022/11/17 12:02:49;;;;;;;9.53;4.62;;;;;;;2.15;100.00;96838.16;1703208;82;21005;-82
2022/11/17 12:05:46;;;;;;;7.30;3.80;;;;;;;2.21;100.00;96836.31;1711043;82;21049;-81
2022/11/17 12:08:18;;;;;;;7.22;3.98;;;;;;;2.05;100.00;96838.08;1703572;82;21040;-81
2022/11/17 12:10:50;;;;;;;8.90;5.85;;;;;;;2.17;100.00;96839.23;1699889;82;21305;-77
2022/11/17 12:13:18;;;;;;;8.60;4.90;;;;;;;2.06;100.00;96840.22;1700258;82;21659;-82
2022/11/17 12:15:44;;;;;;;9.03;4.00;;;;;;;1.92;100.00;96840.62;1695797;82;22183;-77
2022/11/17 12:18:23;;;;;;;9.18;6.42;;;;;;;2.09;100.00;96835.69;1692103;82;20981;-81
2022/11/17 12:20:57;;;;;;;6.05;3.75;;;;;;;2.17;100.00;96839.23;1705357;82;21178;-82
2022/11/17 12:24:11;;;;;;;7.05;3.83;;;;;;;2.07;100.00;96830.61;1701867;82;23036;-81